Time;durP1;ratioP1;P1;durP2;ratioP2;P2;SDS_P1;SDS_P2;PMS_P1;PMS_P2;Temp;Humidity;BMP_temperature;BMP_pressure;BME280_temperature;BME280_humidity;BME280_pressure;Samples;Min_cycle;Max_cycle;Signal;HPM_P1;HPM_P2
2021/05/25 00:01:12;;;;;;;4.63;0.63;;;13.60;75.40;;;;;;5084549;28;27489;-62
2021/05/25 00:04:10;;;;;;;1.63;0.80;;;13.60;75.10;;;;;;5084867;28;27388;-62
2021/05/25 00:07:04;;;;;;;1.55;0.73;;;13.60;74.90;;;;;;5084695;28;27477;-63
2021/05/25 00:10:07;;;;;;;0.98;0.73;;;13.50;74.70;;;;;;5080755;28;27848;-63
2021/05/25 00:13:03;;;;;;;2.55;0.75;;;13.50;75.00;;;;;;5084911;28;27394;-63
2021/05/25 00:15:56;;;;;;;1.05;0.80;;;13.40;74.80;;;;;;5084761;28;26949;-63
2021/05/25 00:19:12;;;;;;;2.17;0.60;;;13.40;74.70;;;;;;5069836;28;27536;-63
2021/05/25 00:22:24;;;;;;;0.95;0.55;;;13.30;74.70;;;;;;5083389;28;27570;-62
2021/05/25 00:25:32;;;;;;;3.00;0.70;;;13.30;75.00;;;;;;5083234;28;27377;-63
2021/05/25 00:28:41;;;;;;;1.17;0.55;;;13.30;74.80;;;;;;5082218;28;27452;-63
2021/05/25 00:31:41;;;;;;;1.58;0.68;;;13.30;75.00;;;;;;5084060;28;27514;-63
2021/05/25 00:35:01;;;;;;;4.72;0.80;;;13.20;74.50;;;;;;5084072;28;27422;-63
2021/05/25 00:38:06;;;;;;;10.32;2.35;;;13.20;74.40;;;;;;5084412;28;27442;-62
2021/05/25 00:40:57;;;;;;;1.58;0.70;;;13.10;74.20;;;;;;5082826;28;27494;-63
2021/05/25 00:43:54;;;;;;;2.58;0.60;;;13.10;74.20;;;;;;5084488;28;26914;-63
2021/05/25 00:46:45;;;;;;;1.92;0.60;;;13.10;74.10;;;;;;5082704;28;27849;-63
2021/05/25 00:49:37;;;;;;;0.57;0.52;;;13.10;74.00;;;;;;5080017;28;27349;-63
2021/05/25 00:52:28;;;;;;;0.65;0.50;;;13.00;74.00;;;;;;5083669;28;27691;-63
2021/05/25 00:55:34;;;;;;;7.68;0.90;;;13.00;74.00;;;;;;5083972;28;27337;-63
2021/05/25 00:58:47;;;;;;;1.17;0.70;;;12.90;73.70;;;;;;5082278;28;27612;-62
2021/05/25 01:01:42;;;;;;;1.52;0.75;;;12.90;74.20;;;;;;5083556;28;27430;-63
2021/05/25 01:04:32;;;;;;;1.60;0.70;;;12.80;74.30;;;;;;5084067;28;27360;-64
2021/05/25 01:07:23;;;;;;;1.83;0.68;;;12.80;74.00;;;;;;5083587;28;27457;-63
2021/05/25 01:10:31;;;;;;;2.22;0.90;;;12.80;74.20;;;;;;5083976;28;27912;-63
2021/05/25 01:13:41;;;;;;;0.95;0.40;;;12.70;74.40;;;;;;5082431;28;27441;-63
2021/05/25 01:16:32;;;;;;;1.63;0.73;;;12.70;74.30;;;;;;5083882;28;27476;-63
2021/05/25 01:19:25;;;;;;;0.70;0.60;;;12.60;74.60;;;;;;5082446;28;27372;-62
2021/05/25 01:22:18;;;;;;;1.25;0.60;;;12.60;74.50;;;;;;5079437;28;27431;-62
2021/05/25 01:25:39;;;;;;;1.92;0.47;;;12.50;74.00;;;;;;5079894;28;27493;-62
2021/05/25 01:28:30;;;;;;;1.52;0.70;;;12.50;74.20;;;;;;5082408;28;27426;-62
2021/05/25 01:31:22;;;;;;;2.38;0.98;;;12.50;74.50;;;;;;5083394;28;27470;-63
2021/05/25 01:34:13;;;;;;;0.85;0.60;;;12.40;74.20;;;;;;5083660;28;27324;-63
2021/05/25 01:37:05;;;;;;;1.98;0.88;;;12.30;74.60;;;;;;5080048;28;27450;-63
2021/05/25 01:40:02;;;;;;;1.67;0.60;;;12.30;74.60;;;;;;5083358;28;27428;-63
2021/05/25 01:42:53;;;;;;;2.58;0.70;;;12.20;74.60;;;;;;5083221;28;27475;-63
2021/05/25 01:45:42;;;;;;;2.60;0.77;;;12.20;74.20;;;;;;5060918;28;27438;-62
2021/05/25 01:48:32;;;;;;;0.90;0.70;;;12.20;75.20;;;;;;5057954;28;27518;-63
2021/05/25 01:51:24;;;;;;;1.88;0.73;;;12.10;75.00;;;;;;5061512;28;27420;-62
2021/05/25 01:54:21;;;;;;;1.30;0.60;;;12.10;75.10;;;;;;5060957;28;27364;-63
2021/05/25 01:57:29;;;;;;;1.30;0.50;;;12.10;75.00;;;;;;5058024;28;27367;-63
2021/05/25 02:00:40;;;;;;;1.33;0.50;;;12.10;75.00;;;;;;5059885;28;27375;-63
2021/05/25 02:03:37;;;;;;;1.23;0.80;;;12.10;74.80;;;;;;5060803;28;27368;-63
2021/05/25 02:06:33;;;;;;;5.50;1.27;;;12.10;75.40;;;;;;5062174;28;27522;-63
2021/05/25 02:09:30;;;;;;;3.65;0.73;;;12.10;75.70;;;;;;5061366;28;27516;-63
2021/05/25 02:12:16;;;;;;;5.03;0.68;;;12.10;75.30;;;;;;5050603;28;27508;-64
2021/05/25 02:15:30;;;;;;;2.40;0.60;;;12.10;75.50;;;;;;5050045;28;27497;-63
2021/05/25 02:18:56;;;;;;;1.85;0.82;;;12.10;75.10;;;;;;5083468;28;27310;-63
2021/05/25 02:21:47;;;;;;;2.63;0.73;;;12.10;74.90;;;;;;5085794;28;27579;-63
2021/05/25 02:24:37;;;;;;;2.55;0.80;;;12.10;74.70;;;;;;5086601;28;27375;-63
2021/05/25 02:27:28;;;;;;;3.13;0.88;;;12.00;74.80;;;;;;5086468;28;27494;-64
2021/05/25 02:30:28;;;;;;;1.00;0.55;;;12.00;74.70;;;;;;5086369;28;27407;-63
2021/05/25 02:33:19;;;;;;;3.25;0.77;;;12.00;74.50;;;;;;5084902;28;27999;-63
2021/05/25 02:36:46;;;;;;;2.17;0.70;;;12.00;75.10;;;;;;5086432;28;27431;-63
2021/05/25 02:39:37;;;;;;;1.65;0.60;;;11.90;75.60;;;;;;5085543;28;27486;-63
2021/05/25 02:42:37;;;;;;;8.13;0.90;;;11.90;76.00;;;;;;5084595;28;27382;-63
2021/05/25 02:45:29;;;;;;;3.05;1.00;;;11.90;76.50;;;;;;5085950;28;27449;-64
2021/05/25 02:48:21;;;;;;;2.38;0.85;;;11.90;76.60;;;;;;5085716;28;27397;-63
2021/05/25 02:51:11;;;;;;;2.38;0.80;;;12.00;77.20;;;;;;5082788;28;26903;-63
2021/05/25 02:54:05;;;;;;;1.00;0.63;;;11.90;77.20;;;;;;5082824;28;27441;-63
2021/05/25 02:56:56;;;;;;;0.70;0.60;;;12.00;77.30;;;;;;5070563;28;27657;-63
2021/05/25 02:59:50;;;;;;;1.35;0.80;;;12.00;77.60;;;;;;5085773;28;27395;-64
2021/05/25 03:02:41;;;;;;;1.77;0.73;;;12.00;77.50;;;;;;5085788;28;27359;-63
2021/05/25 03:05:39;;;;;;;2.45;0.90;;;12.00;77.10;;;;;;5085977;28;27423;-62
2021/05/25 03:08:37;;;;;;;2.70;0.77;;;11.90;76.50;;;;;;5081373;28;27469;-63
2021/05/25 03:11:30;;;;;;;4.03;0.90;;;11.90;76.30;;;;;;5085601;28;27426;-63
2021/05/25 03:14:36;;;;;;;3.90;0.70;;;11.90;75.60;;;;;;5085917;28;27352;-63
2021/05/25 03:17:33;;;;;;;2.10;0.85;;;11.90;75.80;;;;;;5085607;28;27410;-64
2021/05/25 03:20:25;;;;;;;1.15;0.65;;;11.90;75.60;;;;;;5085493;28;27407;-64
2021/05/25 03:23:15;;;;;;;2.42;1.10;;;11.80;75.30;;;;;;5085617;28;27342;-63
2021/05/25 03:26:07;;;;;;;1.13;0.80;;;11.80;75.40;;;;;;5084973;28;27471;-64
2021/05/25 03:29:19;;;;;;;1.77;0.80;;;11.80;75.10;;;;;;5085363;28;27324;-63
2021/05/25 03:32:16;;;;;;;1.45;0.63;;;11.80;75.30;;;;;;5083542;28;27622;-64
2021/05/25 03:35:44;;;;;;;3.70;0.82;;;11.80;75.50;;;;;;5084117;28;27487;-64
2021/05/25 03:38:45;;;;;;;3.75;0.80;;;11.80;75.60;;;;;;5085300;28;27432;-63
2021/05/25 03:41:41;;;;;;;2.08;0.90;;;11.80;75.70;;;;;;5083445;28;27580;-63
2021/05/25 03:44:59;;;;;;;0.70;0.43;;;11.70;76.00;;;;;;5085074;28;27395;-62
2021/05/25 03:48:05;;;;;;;1.80;0.43;;;11.80;75.60;;;;;;5084653;28;27487;-63
2021/05/25 03:50:55;;;;;;;2.42;1.00;;;11.70;75.60;;;;;;5084930;28;27505;-63
2021/05/25 03:54:02;;;;;;;2.85;0.55;;;11.70;75.60;;;;;;5081927;28;27461;-63
2021/05/25 03:57:14;;;;;;;1.60;0.73;;;11.70;75.50;;;;;;5085136;28;27399;-63
2021/05/25 04:00:21;;;;;;;1.60;1.50;;;11.70;75.10;;;;;;5084628;28;27415;-63
2021/05/25 04:03:31;;;;;;;1.92;0.85;;;11.70;75.00;;;;;;5081097;28;27320;-63
2021/05/25 04:06:29;;;;;;;4.45;0.70;;;11.80;74.90;;;;;;5084665;28;27474;-64
2021/05/25 04:09:42;;;;;;;0.50;0.40;;;11.80;75.00;;;;;;5084700;28;27384;-63
2021/05/25 04:12:33;;;;;;;0.95;0.68;;;11.70;75.10;;;;;;5083980;28;27466;-63
2021/05/25 04:15:30;;;;;;;2.15;0.85;;;11.70;75.10;;;;;;5080722;28;27411;-63
2021/05/25 04:18:28;;;;;;;2.80;0.40;;;11.70;75.20;;;;;;5080503;28;27465;-63
2021/05/25 04:21:21;;;;;;;4.10;0.60;;;11.70;75.00;;;;;;5084525;28;27458;-64
2021/05/25 04:24:30;;;;;;;3.50;0.65;;;11.70;75.40;;;;;;5084372;28;27400;-64
2021/05/25 04:27:32;;;;;;;1.83;0.68;;;11.70;75.20;;;;;;5083713;28;27337;-64
2021/05/25 04:30:43;;;;;;;1.40;0.65;;;11.70;75.40;;;;;;5084056;28;27431;-67
2021/05/25 04:33:32;;;;;;;0.60;0.50;;;11.70;75.80;;;;;;5084351;28;27945;-66
2021/05/25 04:36:29;;;;;;;0.90;0.45;;;11.70;75.90;;;;;;5081200;28;27458;-64
2021/05/25 04:39:27;;;;;;;0.75;0.60;;;11.70;76.20;;;;;;5084316;28;27391;-63
2021/05/25 04:42:41;;;;;;;1.85;0.60;;;11.70;76.60;;;;;;5081137;28;27460;-63
2021/05/25 04:45:34;;;;;;;1.70;0.47;;;11.70;76.70;;;;;;5084147;28;27453;-63
2021/05/25 04:48:30;;;;;;;1.05;0.47;;;11.70;76.40;;;;;;5084218;28;27466;-64
2021/05/25 04:51:23;;;;;;;0.57;0.55;;;11.60;76.40;;;;;;5084123;28;27391;-64
2021/05/25 04:54:21;;;;;;;1.95;0.60;;;11.60;77.70;;;;;;5068159;28;27597;-63
2021/05/25 04:57:43;;;;;;;1.73;0.70;;;11.60;76.90;;;;;;5080323;28;27882;-64
2021/05/25 05:00:52;;;;;;;4.97;0.95;;;11.60;77.40;;;;;;5082674;28;27474;-63
2021/05/25 05:03:59;;;;;;;3.65;0.73;;;11.70;77.90;;;;;;5083901;28;27391;-64
2021/05/25 05:06:56;;;;;;;1.92;0.63;;;11.70;78.30;;;;;;5083670;28;27671;-64
2021/05/25 05:09:49;;;;;;;3.20;0.70;;;11.70;76.00;;;;;;5084051;28;27849;-64
2021/05/25 05:12:43;;;;;;;1.63;1.00;;;11.70;77.60;;;;;;5069018;28;27615;-63
2021/05/25 05:15:40;;;;;;;1.75;0.95;;;11.70;77.60;;;;;;5084000;28;27431;-63
2021/05/25 05:18:38;;;;;;;2.28;0.93;;;11.70;78.50;;;;;;5084158;28;27462;-64
2021/05/25 05:21:35;;;;;;;2.03;0.60;;;11.70;78.30;;;;;;5083322;28;27454;-64
2021/05/25 05:24:40;;;;;;;2.38;0.60;;;11.70;79.00;;;;;;5080349;28;27425;-64
2021/05/25 05:27:32;;;;;;;1.52;0.68;;;11.70;77.80;;;;;;5080171;28;27317;-65
2021/05/25 05:30:44;;;;;;;2.70;0.60;;;11.80;79.40;;;;;;5083574;28;26916;-63
2021/05/25 05:33:36;;;;;;;2.30;0.50;;;11.80;80.00;;;;;;5083407;28;27493;-64
2021/05/25 05:36:27;;;;;;;1.05;0.52;;;11.90;79.90;;;;;;5082579;28;27411;-64
2021/05/25 05:39:14;;;;;;;0.80;0.50;;;11.90;79.60;;;;;;5083686;28;27400;-65
2021/05/25 05:42:01;;;;;;;2.67;0.80;;;12.00;78.90;;;;;;5083176;28;27404;-64
2021/05/25 05:44:48;;;;;;;6.72;1.95;;;12.00;79.10;;;;;;5083536;28;27339;-66
2021/05/25 05:47:33;;;;;;;3.42;0.85;;;12.10;79.00;;;;;;5083435;28;27367;-65
2021/05/25 05:50:17;;;;;;;1.50;0.70;;;12.20;78.80;;;;;;5081292;28;27383;-65
2021/05/25 05:53:08;;;;;;;1.38;0.70;;;12.20;78.70;;;;;;5084531;28;27359;-67
2021/05/25 05:55:56;;;;;;;2.00;0.70;;;12.30;78.30;;;;;;5084125;28;27461;-64
2021/05/25 05:59:10;;;;;;;2.53;0.90;;;12.40;78.10;;;;;;5080890;28;27368;-66
2021/05/25 06:01:55;;;;;;;4.78;1.40;;;12.50;77.90;;;;;;5080334;28;27391;-65
2021/05/25 06:04:40;;;;;;;2.03;0.85;;;12.50;78.30;;;;;;5084347;28;27387;-64
2021/05/25 06:07:52;;;;;;;2.42;0.80;;;12.60;77.80;;;;;;5084074;28;27324;-68
2021/05/25 06:10:39;;;;;;;1.58;0.55;;;12.60;77.80;;;;;;5083976;28;27463;-63
2021/05/25 06:13:24;;;;;;;1.98;0.70;;;12.70;78.50;;;;;;5084351;28;27345;-65
2021/05/25 06:16:15;;;;;;;7.90;1.02;;;12.70;77.00;;;;;;5080799;28;28028;-65
2021/05/25 06:19:03;;;;;;;1.35;0.80;;;12.70;77.00;;;;;;5084136;28;27497;-66
2021/05/25 06:21:47;;;;;;;3.67;0.85;;;12.70;77.40;;;;;;5084074;28;27402;-65
2021/05/25 06:24:34;;;;;;;2.80;0.82;;;12.80;76.90;;;;;;5084144;28;27471;-66
2021/05/25 06:27:19;;;;;;;3.35;0.70;;;12.80;75.60;;;;;;5083925;28;27446;-64
2021/05/25 06:30:05;;;;;;;3.10;0.95;;;12.90;77.20;;;;;;5083923;28;27444;-65
2021/05/25 06:32:52;;;;;;;1.95;0.80;;;12.90;77.10;;;;;;5065627;28;27348;-66
2021/05/25 06:35:41;;;;;;;0.60;0.52;;;12.90;77.80;;;;;;5084033;28;27412;-65
2021/05/25 06:38:26;;;;;;;2.03;0.93;;;13.10;78.10;;;;;;5083629;28;27427;-65
2021/05/25 06:41:11;;;;;;;1.80;0.70;;;13.20;76.50;;;;;;5083839;28;27429;-65
2021/05/25 06:43:58;;;;;;;3.47;0.70;;;13.30;76.10;;;;;;5083374;28;27470;-66
2021/05/25 06:46:48;;;;;;;3.45;0.70;;;13.40;76.80;;;;;;5080369;28;27382;-68
2021/05/25 06:49:39;;;;;;;2.30;0.73;;;13.40;76.20;;;;;;5083589;28;27340;-67
2021/05/25 06:52:23;;;;;;;1.92;0.93;;;13.50;75.80;;;;;;5080549;28;27459;-65
2021/05/25 06:55:12;;;;;;;2.35;0.75;;;13.50;75.50;;;;;;5083689;28;27412;-65
2021/05/25 06:58:15;;;;;;;3.90;0.88;;;13.50;76.00;;;;;;5086959;28;27359;-66
2021/05/25 07:00:59;;;;;;;1.25;0.73;;;13.50;76.40;;;;;;5087146;28;27359;-66
2021/05/25 07:03:51;;;;;;;3.92;0.85;;;13.60;76.10;;;;;;5083536;28;27853;-67
2021/05/25 07:07:18;;;;;;;3.17;0.70;;;13.60;75.70;;;;;;5083495;28;27461;-67
2021/05/25 07:10:09;;;;;;;3.08;0.90;;;13.70;75.70;;;;;;5087082;28;27422;-64
2021/05/25 07:13:36;;;;;;;1.15;0.68;;;13.80;75.20;;;;;;5086249;28;27347;-65
2021/05/25 07:16:34;;;;;;;2.97;0.90;;;14.10;75.00;;;;;;5085952;28;27582;-64
2021/05/25 07:19:21;;;;;;;1.30;0.75;;;14.40;73.90;;;;;;5086546;28;27351;-65
2021/05/25 07:22:35;;;;;;;3.50;0.85;;;14.70;73.10;;;;;;5086105;28;27324;-64
2021/05/25 07:26:13;;;;;;;2.65;0.80;;;15.00;72.10;;;;;;5083335;28;27352;-64
2021/05/25 07:29:52;;;;;;;3.63;0.85;;;15.30;70.60;;;;;;5085018;28;27949;-63
2021/05/25 07:32:53;;;;;;;2.80;0.93;;;15.60;69.50;;;;;;5083073;28;27494;-65
2021/05/25 07:35:52;;;;;;;2.65;0.68;;;15.70;68.70;;;;;;5086369;28;27392;-65
2021/05/25 07:38:55;;;;;;;3.95;1.10;;;15.80;68.60;;;;;;5084840;28;27461;-65
2021/05/25 07:41:47;;;;;;;6.78;0.93;;;15.90;68.10;;;;;;5086530;28;27415;-65
2021/05/25 07:44:44;;;;;;;2.00;0.80;;;16.20;66.90;;;;;;5086120;28;27344;-65
2021/05/25 07:48:03;;;;;;;3.83;0.95;;;16.20;66.00;;;;;;5082569;28;27373;-65
2021/05/25 07:51:04;;;;;;;1.58;0.75;;;16.30;66.40;;;;;;5090517;28;26931;-65
2021/05/25 07:54:03;;;;;;;2.63;0.80;;;16.50;67.20;;;;;;5089956;28;27415;-66
2021/05/25 07:56:58;;;;;;;16.23;1.17;;;16.70;66.30;;;;;;5090791;28;27471;-65
2021/05/25 07:59:54;;;;;;;3.75;0.80;;;16.80;59.00;;;;;;5090872;28;27425;-64
2021/05/25 08:02:56;;;;;;;1.27;0.60;;;16.90;60.50;;;;;;5120118;27;27482;-64
2021/05/25 08:05:48;;;;;;;4.97;1.05;;;17.20;61.10;;;;;;5089131;28;27474;-65
2021/05/25 08:08:42;;;;;;;2.60;0.82;;;17.50;61.60;;;;;;5091065;28;27399;-65
2021/05/25 08:12:00;;;;;;;2.30;0.80;;;17.80;61.10;;;;;;5091828;28;27427;-65
2021/05/25 08:14:53;;;;;;;2.22;0.70;;;18.00;59.70;;;;;;5093268;28;27517;-65
2021/05/25 08:20:38;;;;;;;5.45;0.90;;;18.20;59.20;;;;;;5091819;28;27371;-65
2021/05/25 08:23:54;;;;;;;5.70;0.80;;;18.10;58.50;;;;;;5087142;28;27420;-64
2021/05/25 08:26:49;;;;;;;4.75;0.93;;;18.10;59.10;;;;;;5089199;28;27348;-64
2021/05/25 08:30:01;;;;;;;2.55;0.88;;;18.20;58.40;;;;;;5082410;28;27525;-65
2021/05/25 08:32:58;;;;;;;2.30;0.70;;;18.20;57.70;;;;;;5085083;28;27582;-65
2021/05/25 08:35:50;;;;;;;2.38;0.70;;;18.10;57.30;;;;;;5085823;28;27458;-64
2021/05/25 08:38:40;;;;;;;2.88;0.82;;;18.10;57.50;;;;;;5085706;28;27448;-64
2021/05/25 08:41:33;;;;;;;2.13;0.80;;;18.00;57.00;;;;;;5085255;28;27378;-64
2021/05/25 08:44:24;;;;;;;2.88;0.70;;;17.90;56.90;;;;;;5085534;28;27430;-65
2021/05/25 08:47:15;;;;;;;3.33;0.88;;;17.90;56.30;;;;;;5085512;28;27395;-64
2021/05/25 08:50:08;;;;;;;3.40;0.50;;;17.80;56.20;;;;;;5081549;28;27357;-65
2021/05/25 08:53:06;;;;;;;4.93;0.73;;;17.80;56.50;;;;;;5085121;28;27465;-64
2021/05/25 08:56:01;;;;;;;5.28;0.90;;;17.70;57.30;;;;;;5085079;28;27328;-64
2021/05/25 08:59:21;;;;;;;3.13;1.15;;;17.60;56.80;;;;;;5070042;28;27522;-65
2021/05/25 09:02:38;;;;;;;3.90;0.88;;;17.60;56.80;;;;;;5084477;28;27557;-66
2021/05/25 09:05:37;;;;;;;2.88;0.70;;;17.50;57.30;;;;;;5085203;28;27442;-65
2021/05/25 09:08:28;;;;;;;4.90;0.88;;;17.50;58.30;;;;;;5084946;28;27328;-65
2021/05/25 09:11:30;;;;;;;4.95;1.00;;;17.60;59.90;;;;;;5085169;28;27447;-65
2021/05/25 09:14:21;;;;;;;2.42;1.52;;;17.60;59.20;;;;;;5084845;28;27419;-64
2021/05/25 09:17:38;;;;;;;3.63;1.00;;;17.60;59.50;;;;;;5084898;28;27845;-64
2021/05/25 09:20:43;;;;;;;3.78;1.17;;;17.50;58.30;;;;;;5084679;28;27333;-64
2021/05/25 09:23:38;;;;;;;2.67;0.65;;;17.40;58.10;;;;;;5084981;28;27413;-64
2021/05/25 09:26:37;;;;;;;1.77;0.60;;;17.30;57.90;;;;;;5083165;28;27404;-64
2021/05/25 09:29:33;;;;;;;0.77;0.52;;;17.20;58.20;;;;;;5084788;28;27469;-64
2021/05/25 09:32:55;;;;;;;7.32;0.80;;;17.10;57.80;;;;;;5081239;28;27434;-65
2021/05/25 09:35:44;;;;;;;1.88;0.60;;;17.00;56.50;;;;;;5084873;28;27481;-64
2021/05/25 09:38:29;;;;;;;4.82;1.00;;;16.90;56.70;;;;;;5083677;28;27427;-69
2021/05/25 09:41:20;;;;;;;6.93;1.03;;;16.90;56.90;;;;;;5080601;28;27446;-64
2021/05/25 09:44:13;;;;;;;4.93;1.20;;;16.90;58.60;;;;;;5080259;28;27418;-65
2021/05/25 09:47:05;;;;;;;5.55;1.33;;;16.90;60.00;;;;;;5084563;28;27387;-65
2021/05/25 09:50:20;;;;;;;5.30;1.05;;;17.00;59.60;;;;;;5084661;28;27385;-66
2021/05/25 09:53:08;;;;;;;5.20;0.80;;;17.10;60.00;;;;;;5083942;28;27829;-66
2021/05/25 09:56:25;;;;;;;3.40;0.63;;;17.10;57.80;;;;;;5084228;28;27380;-65
2021/05/25 09:59:29;;;;;;;2.20;0.80;;;17.10;57.70;;;;;;5066984;28;27420;-66
2021/05/25 10:02:21;;;;;;;3.70;0.77;;;17.10;57.60;;;;;;5084172;28;27415;-70
2021/05/25 10:05:07;;;;;;;6.63;1.42;;;17.10;58.40;;;;;;5084317;28;27336;-66
2021/05/25 10:07:59;;;;;;;2.90;0.93;;;17.20;58.40;;;;;;5084204;28;27519;-65
2021/05/25 10:10:49;;;;;;;2.40;0.82;;;17.40;58.10;;;;;;5084357;28;27447;-66
2021/05/25 10:13:46;;;;;;;3.22;0.98;;;17.90;60.20;;;;;;5084065;28;27414;-66
2021/05/25 10:16:45;;;;;;;2.28;0.88;;;18.60;59.10;;;;;;5084129;28;27833;-66
2021/05/25 10:19:35;;;;;;;3.15;0.73;;;19.10;57.60;;;;;;5083854;28;27395;-66
2021/05/25 10:22:27;;;;;;;2.08;0.68;;;19.60;57.70;;;;;;5080661;28;27485;-66
2021/05/25 10:25:26;;;;;;;11.77;1.15;;;20.00;56.60;;;;;;5083108;28;27388;-66
2021/05/25 10:28:17;;;;;;;4.68;0.90;;;20.40;56.20;;;;;;5085985;28;27933;-67
2021/05/25 10:31:28;;;;;;;6.35;0.93;;;20.90;56.60;;;;;;5069511;28;27383;-66
2021/05/25 10:34:22;;;;;;;4.13;1.33;;;21.40;56.20;;;;;;5087375;28;27328;-73
2021/05/25 10:37:17;;;;;;;6.90;0.98;;;21.80;56.40;;;;;;5087600;28;27462;-66
2021/05/25 10:40:11;;;;;;;7.63;1.08;;;22.20;55.60;;;;;;5087497;28;27529;-66
2021/05/25 10:43:38;;;;;;;3.47;1.73;;;22.40;54.90;;;;;;5086622;28;27443;-67
2021/05/25 10:46:29;;;;;;;5.78;0.80;;;22.50;54.50;;;;;;5087192;28;27438;-67
2021/05/25 10:49:27;;;;;;;3.55;0.95;;;22.60;53.50;;;;;;5086306;28;27379;-66
2021/05/25 10:52:33;;;;;;;3.13;0.80;;;22.40;51.80;;;;;;5087321;28;27481;-66
2021/05/25 10:55:34;;;;;;;5.93;1.00;;;22.10;51.00;;;;;;5085054;28;27431;-66
2021/05/25 10:58:30;;;;;;;3.92;1.10;;;22.10;50.70;;;;;;5086959;28;27461;-66
2021/05/25 11:01:29;;;;;;;5.50;1.08;;;22.30;51.50;;;;;;5086904;28;27480;-67
2021/05/25 11:04:35;;;;;;;4.53;0.80;;;22.50;51.70;;;;;;5086899;28;27429;-67
2021/05/25 11:08:02;;;;;;;11.75;1.52;;;22.70;51.90;;;;;;5086969;28;27336;-66
2021/05/25 11:10:54;;;;;;;4.78;1.33;;;22.90;51.40;;;;;;5083679;28;27410;-67
2021/05/25 11:14:02;;;;;;;3.97;1.20;;;23.20;52.20;;;;;;5086972;28;27420;-67
2021/05/25 11:17:01;;;;;;;4.07;1.05;;;23.20;49.30;;;;;;5083648;28;27340;-66
2021/05/25 11:20:10;;;;;;;4.00;0.90;;;22.90;49.70;;;;;;5086495;28;27499;-67
2021/05/25 11:23:25;;;;;;;4.78;1.05;;;22.60;50.50;;;;;;5086680;28;27321;-72
2021/05/25 11:26:57;;;;;;;4.03;0.73;;;22.30;49.10;;;;;;5086278;28;27414;-73
2021/05/25 11:30:07;;;;;;;3.08;0.90;;;22.00;50.20;;;;;;5086800;28;27460;-73
2021/05/25 11:33:04;;;;;;;5.75;1.00;;;21.60;51.30;;;;;;5086500;28;27382;-73
2021/05/25 11:35:59;;;;;;;3.97;0.65;;;21.40;51.70;;;;;;5086837;28;27383;-72
2021/05/25 11:39:08;;;;;;;2.97;1.00;;;21.10;50.50;;;;;;5085118;28;27352;-74
2021/05/25 11:41:59;;;;;;;3.70;1.10;;;20.80;51.10;;;;;;5086348;28;27464;-74
2021/05/25 11:44:51;;;;;;;2.42;0.70;;;20.60;51.30;;;;;;5085002;28;27395;-73
2021/05/25 11:47:48;;;;;;;2.72;1.00;;;20.50;53.80;;;;;;5086570;28;27390;-72
2021/05/25 11:50:53;;;;;;;5.53;1.13;;;20.40;53.80;;;;;;5086487;28;27344;-73
2021/05/25 11:54:33;;;;;;;3.70;1.30;;;20.30;53.30;;;;;;5085606;28;27329;-73
2021/05/25 11:57:51;;;;;;;3.85;1.10;;;20.50;53.70;;;;;;5086050;28;27430;-73
2021/05/25 12:00:47;;;;;;;6.85;1.23;;;20.80;58.50;;;;;;5085705;28;27379;-73
2021/05/25 12:03:50;;;;;;;4.65;0.80;;;21.10;58.10;;;;;;5082981;28;27309;-73
2021/05/25 12:06:46;;;;;;;3.90;0.75;;;21.40;58.70;;;;;;5082909;28;27382;-71
2021/05/25 12:09:37;;;;;;;5.93;1.17;;;21.70;57.00;;;;;;5086127;28;27336;-72
2021/05/25 12:12:38;;;;;;;3.03;1.00;;;21.80;55.00;;;;;;5085535;28;27467;-73
2021/05/25 12:15:36;;;;;;;3.30;0.90;;;21.70;53.40;;;;;;5084917;28;27438;-73
2021/05/25 12:18:27;;;;;;;4.85;1.25;;;21.60;53.40;;;;;;5085977;28;27415;-74
2021/05/25 12:21:32;;;;;;;3.08;0.90;;;21.60;53.60;;;;;;5085212;28;27371;-73
2021/05/25 12:24:47;;;;;;;3.50;1.25;;;21.50;54.70;;;;;;5085525;28;27410;-73
2021/05/25 12:27:45;;;;;;;1.95;0.70;;;21.50;54.80;;;;;;5093742;28;27312;-72
2021/05/25 12:30:59;;;;;;;3.75;1.00;;;21.30;53.60;;;;;;5081982;28;27430;-71
2021/05/25 12:33:50;;;;;;;2.72;0.93;;;21.00;52.50;;;;;;5085762;28;27594;-73
2021/05/25 12:36:57;;;;;;;4.57;1.05;;;20.80;52.90;;;;;;5085477;28;27356;-73
2021/05/25 12:39:59;;;;;;;1.85;0.85;;;20.60;51.30;;;;;;5085099;28;27371;-75
2021/05/25 12:42:53;;;;;;;4.03;0.93;;;20.40;50.80;;;;;;5085444;28;27465;-74
2021/05/25 12:45:47;;;;;;;4.05;0.90;;;20.30;52.70;;;;;;5084588;27;27567;-74
2021/05/25 12:48:40;;;;;;;5.78;1.00;;;20.30;55.60;;;;;;5070291;28;27518;-73
2021/05/25 12:51:31;;;;;;;2.88;0.90;;;20.40;61.40;;;;;;5085093;28;27461;-73
2021/05/25 12:54:57;;;;;;;1.35;0.65;;;20.50;62.60;;;;;;5081847;28;27398;-73
2021/05/25 12:58:11;;;;;;;1.27;0.80;;;20.60;64.50;;;;;;5084944;28;27407;-73
2021/05/25 13:00:56;;;;;;;3.47;1.15;;;20.60;63.60;;;;;;5085406;28;27374;-78
2021/05/25 13:04:07;;;;;;;2.83;0.90;;;20.70;62.30;;;;;;5066778;28;27325;-73
2021/05/25 13:07:08;;;;;;;2.95;0.93;;;20.80;61.30;;;;;;5084639;28;27639;-72
2021/05/25 13:10:10;;;;;;;5.10;0.80;;;20.80;58.50;;;;;;5083622;28;27364;-72
2021/05/25 13:13:12;;;;;;;2.80;0.90;;;20.90;61.90;;;;;;5085168;28;27462;-71
2021/05/25 13:16:10;;;;;;;5.05;0.80;;;21.00;62.00;;;;;;5084996;28;27411;-72
2021/05/25 13:19:00;;;;;;;2.67;0.75;;;21.10;62.60;;;;;;5081777;28;27405;-73
2021/05/25 13:21:47;;;;;;;4.55;1.00;;;21.20;61.80;;;;;;5084952;28;27477;-71
2021/05/25 13:24:57;;;;;;;3.08;0.70;;;21.30;60.60;;;;;;5083957;28;27423;-71
2021/05/25 13:28:08;;;;;;;5.68;0.93;;;21.40;60.40;;;;;;5084867;28;27386;-72
2021/05/25 13:31:13;;;;;;;2.70;0.77;;;21.60;59.50;;;;;;5085740;28;27493;-72
2021/05/25 13:34:17;;;;;;;3.13;0.52;;;21.70;59.10;;;;;;5083714;28;27654;-72
2021/05/25 13:37:11;;;;;;;3.10;0.68;;;21.80;58.00;;;;;;5084925;28;27512;-71
2021/05/25 13:40:04;;;;;;;3.58;0.80;;;21.80;59.70;;;;;;5069429;28;27495;-72
2021/05/25 13:42:55;;;;;;;0.95;0.50;;;21.70;57.20;;;;;;5084458;28;27363;-72
2021/05/25 13:45:46;;;;;;;2.95;1.00;;;21.60;54.90;;;;;;5084368;28;27501;-70
2021/05/25 13:48:57;;;;;;;2.08;0.70;;;21.50;55.40;;;;;;5084178;28;27474;-69
2021/05/25 13:51:58;;;;;;;2.25;0.50;;;21.40;54.60;;;;;;5084096;28;27386;-71
2021/05/25 13:54:53;;;;;;;3.45;1.00;;;21.30;42.60;;;;;;5083414;28;27375;-71
2021/05/25 13:57:51;;;;;;;2.50;0.90;;;21.20;48.80;;;;;;5084030;28;27606;-71
2021/05/25 14:00:57;;;;;;;4.25;0.63;;;21.20;51.70;;;;;;5083416;28;27361;-70
2021/05/25 14:03:49;;;;;;;4.13;1.05;;;21.10;53.20;;;;;;5083234;28;27302;-71
2021/05/25 14:06:41;;;;;;;2.05;0.95;;;21.00;55.70;;;;;;5084396;28;27467;-72
2021/05/25 14:09:28;;;;;;;3.55;0.80;;;21.00;56.50;;;;;;5083814;28;27392;-74
2021/05/25 14:12:22;;;;;;;1.60;0.63;;;21.00;56.30;;;;;;5084085;28;27450;-70
2021/05/25 14:15:42;;;;;;;2.05;0.73;;;21.10;55.50;;;;;;5062005;28;27390;-71
2021/05/25 14:18:33;;;;;;;3.50;0.80;;;21.20;56.20;;;;;;5061880;28;27406;-70
2021/05/25 14:21:30;;;;;;;3.45;0.77;;;21.30;56.10;;;;;;5062311;28;27484;-79
2021/05/25 14:24:21;;;;;;;4.20;0.90;;;21.50;56.30;;;;;;5061685;28;27022;-71
2021/05/25 14:27:14;;;;;;;0.77;0.50;;;21.50;56.40;;;;;;5061022;28;27545;-70
2021/05/25 14:30:27;;;;;;;1.08;0.50;;;21.50;53.40;;;;;;5061264;28;27419;-69
2021/05/25 14:33:22;;;;;;;2.00;0.60;;;21.50;52.60;;;;;;5061567;28;27525;-70
2021/05/25 14:36:16;;;;;;;2.28;0.80;;;21.40;52.70;;;;;;5061894;28;27392;-70
2021/05/25 14:39:23;;;;;;;2.95;0.73;;;21.40;52.90;;;;;;5047648;28;27515;-70
2021/05/25 14:42:28;;;;;;;3.08;0.63;;;21.40;52.20;;;;;;5061732;28;27896;-69
2021/05/25 14:45:19;;;;;;;2.80;1.60;;;21.30;52.40;;;;;;5052038;28;27370;-70
2021/05/25 14:48:05;;;;;;;4.82;0.80;;;21.20;51.40;;;;;;5083436;28;27423;-70
2021/05/25 14:50:54;;;;;;;2.90;0.70;;;21.20;51.00;;;;;;5083052;28;27372;-73
2021/05/25 14:53:56;;;;;;;2.45;0.80;;;21.10;51.90;;;;;;5082990;28;27374;-69
2021/05/25 14:56:58;;;;;;;2.42;0.60;;;21.10;50.70;;;;;;5083376;28;27577;-69
2021/05/25 14:59:48;;;;;;;3.33;0.90;;;21.00;51.10;;;;;;5083798;28;27427;-69
2021/05/25 15:05:49;;;;;;;2.28;0.70;;;21.00;51.30;;;;;;5083311;28;27443;-70
2021/05/25 15:08:44;;;;;;;1.85;0.75;;;20.90;51.70;;;;;;5079834;28;27334;-70
2021/05/25 15:11:43;;;;;;;3.25;0.70;;;20.90;51.40;;;;;;5083284;28;27353;-70
2021/05/25 15:14:35;;;;;;;2.25;0.88;;;20.90;53.20;;;;;;5085643;28;27472;-69
2021/05/25 15:17:25;;;;;;;1.70;0.93;;;20.90;53.20;;;;;;5086554;28;27513;-69
2021/05/25 15:20:33;;;;;;;2.85;1.52;;;20.90;52.60;;;;;;5086886;28;27382;-70
2021/05/25 15:23:44;;;;;;;3.15;1.35;;;20.90;52.60;;;;;;5085649;28;27382;-69
2021/05/25 15:26:37;;;;;;;2.05;1.10;;;20.80;53.00;;;;;;5085775;28;27485;-70
2021/05/25 15:29:47;;;;;;;4.10;1.17;;;20.70;52.40;;;;;;5085836;28;27418;-70
2021/05/25 15:32:37;;;;;;;2.35;0.90;;;20.70;52.10;;;;;;5082632;28;27483;-74
2021/05/25 15:35:28;;;;;;;2.75;0.90;;;20.60;50.80;;;;;;5086641;28;27464;-69